7CO7 weather

Frontier Helicopters Heliport
Johnstown, Colorado, United States

Public forecast

Using degrees Fahrenheit for public forecast. Weather courtesy of forecast.io.

METAR (pilot weather report)

Closest report is Greeley–Weld County Airport, 10.4 nm (19.3 km) NE. Retrieved 2019/08/24 18:56 UTC (31 minutes ago):

KGXY 241856Z AUTO VRB06KT 8SM 27/12 A3001 RMK AO2 SLP118 T02670117 $

TAF (pilot weather forecast)

Closest forecast is Rocky Mountain Metropolitan Airport, 29.2 nm (54.2 km) SSW. Retrieved 2019/08/24 18:36 UTC (51 minutes ago):

TAF KBJC 241735Z 2418/2518 06005KT P6SM SCT150 BKN200 FM242000 34010KT P6SM FEW100 SCT150 BKN200 FM250300 27008KT P6SM FEW150 BKN220